Time;durP1;ratioP1;P1;durP2;ratioP2;P2;SDS_P1;SDS_P2;PMS_P1;PMS_P2;Temp;Humidity;BMP_temperature;BMP_pressure;BME280_temperature;BME280_humidity;BME280_pressure;Samples;Min_cycle;Max_cycle;Signal;HPM_P1;HPM_P2
2021/06/27 00:01:36;;;;;;;0.60;0.60;;;19.80;99.90;;;;;;5072008;28;20243;-84
2021/06/27 00:04:02;;;;;;;0.40;0.40;;;19.70;99.90;;;;;;5070155;28;20213;-84
2021/06/27 00:06:27;;;;;;;0.80;0.80;;;19.70;99.90;;;;;;5053678;28;20221;-84
2021/06/27 00:08:53;;;;;;;2.13;1.17;;;19.70;99.90;;;;;;5070535;28;20271;-83
2021/06/27 00:11:19;;;;;;;0.67;0.67;;;19.70;99.90;;;;;;5071917;28;20181;-84
2021/06/27 00:13:47;;;;;;;0.77;0.70;;;19.70;99.90;;;;;;5071832;28;20609;-84
2021/06/27 00:16:14;;;;;;;0.77;0.40;;;19.70;99.90;;;;;;5072310;28;20193;-84
2021/06/27 00:18:40;;;;;;;1.10;0.67;;;19.80;99.90;;;;;;5057700;28;20249;-83
2021/06/27 00:21:11;;;;;;;2.20;0.60;;;19.70;99.90;;;;;;5057792;28;20196;-84
2021/06/27 00:23:39;;;;;;;0.93;0.93;;;19.70;99.90;;;;;;5057739;28;20224;-84
2021/06/27 00:26:11;;;;;;;0.93;0.83;;;19.60;99.90;;;;;;5075534;28;20260;-84
2021/06/27 00:28:37;;;;;;;0.67;0.67;;;19.60;99.90;;;;;;5057412;28;20238;-84
2021/06/27 00:31:04;;;;;;;1.37;0.57;;;19.60;99.90;;;;;;5075281;28;20185;-84
2021/06/27 00:33:30;;;;;;;1.67;1.10;;;19.60;99.90;;;;;;5070542;28;20208;-84
2021/06/27 00:35:56;;;;;;;0.30;0.30;;;19.60;99.90;;;;;;5077605;28;20192;-84
2021/06/27 00:38:24;;;;;;;0.83;0.67;;;19.60;99.90;;;;;;5077538;28;20195;-84
2021/06/27 00:40:50;;;;;;;0.70;0.70;;;19.70;99.90;;;;;;5095386;28;20306;-84
2021/06/27 00:43:16;;;;;;;0.60;0.60;;;19.80;99.90;;;;;;5095625;28;20208;-82
2021/06/27 00:45:42;;;;;;;0.73;0.73;;;19.80;99.90;;;;;;5071209;28;20181;-84
2021/06/27 00:48:08;;;;;;;0.40;0.40;;;19.80;99.90;;;;;;5074741;28;20184;-84
2021/06/27 00:50:40;;;;;;;1.63;0.63;;;19.70;99.90;;;;;;5057089;28;20192;-84
2021/06/27 00:53:06;;;;;;;1.27;0.80;;;19.70;99.90;;;;;;5056903;28;20315;-84
2021/06/27 00:55:32;;;;;;;0.80;0.80;;;19.80;99.90;;;;;;5072152;28;20193;-83
2021/06/27 00:57:59;;;;;;;0.70;0.70;;;19.80;99.90;;;;;;5094662;28;20191;-83
2021/06/27 01:00:31;;;;;;;0.90;0.50;;;19.90;99.90;;;;;;5077467;28;20215;-82
2021/06/27 01:02:57;;;;;;;0.67;0.60;;;19.90;99.90;;;;;;5076401;28;20216;-83
2021/06/27 01:05:26;;;;;;;0.43;0.43;;;19.80;99.90;;;;;;5077233;28;20185;-84
2021/06/27 01:07:53;;;;;;;1.43;1.43;;;19.80;99.90;;;;;;5072801;28;20560;-84
2021/06/27 01:10:18;;;;;;;0.80;0.60;;;19.80;99.90;;;;;;5057038;28;20199;-84
2021/06/27 01:12:45;;;;;;;0.23;0.23;;;19.80;99.90;;;;;;5056620;28;20646;-84
2021/06/27 01:15:12;;;;;;;1.00;1.00;;;19.70;99.90;;;;;;5056944;28;20184;-84
2021/06/27 01:17:44;;;;;;;1.10;0.60;;;19.70;99.90;;;;;;5056356;28;20184;-84
2021/06/27 01:20:13;;;;;;;0.80;0.40;;;19.80;99.90;;;;;;5056906;28;20188;-84
2021/06/27 01:22:40;;;;;;;0.60;0.60;;;19.80;99.90;;;;;;5074010;28;20201;-84
2021/06/27 01:25:08;;;;;;;0.63;0.50;;;19.80;99.90;;;;;;5056793;28;20214;-83
2021/06/27 01:27:34;;;;;;;1.03;0.80;;;19.60;99.90;;;;;;5055739;28;20177;-84
2021/06/27 01:29:59;;;;;;;1.67;0.70;;;19.50;99.90;;;;;;5074485;28;20188;-84
2021/06/27 01:32:25;;;;;;;1.20;1.10;;;19.40;99.90;;;;;;5053168;28;20328;-83
2021/06/27 01:34:51;;;;;;;1.30;1.00;;;19.30;99.90;;;;;;5073865;28;20554;-83
2021/06/27 01:37:17;;;;;;;0.80;0.80;;;19.20;99.90;;;;;;5072790;28;20195;-84
2021/06/27 01:39:43;;;;;;;2.07;1.60;;;19.10;99.90;;;;;;5074135;28;20177;-84
2021/06/27 01:42:08;;;;;;;1.30;1.20;;;19.00;99.90;;;;;;5072640;28;20181;-84
2021/06/27 01:44:35;;;;;;;0.67;0.67;;;18.90;99.90;;;;;;5055254;28;20209;-83
2021/06/27 01:47:00;;;;;;;0.93;0.80;;;18.90;99.90;;;;;;5074198;28;20195;-84
2021/06/27 01:49:41;;;;;;;1.37;1.13;;;18.90;99.90;;;;;;5076208;28;20615;-84
2021/06/27 01:52:07;;;;;;;1.93;0.40;;;18.90;99.90;;;;;;5055330;28;20570;-84
2021/06/27 01:54:36;;;;;;;0.57;0.57;;;18.90;99.90;;;;;;5059145;28;20212;-84
2021/06/27 01:57:02;;;;;;;1.07;0.90;;;19.00;99.90;;;;;;5060994;28;20181;-83
2021/06/27 01:59:27;;;;;;;0.60;0.60;;;19.20;99.90;;;;;;5072528;28;20250;-84
2021/06/27 02:01:53;;;;;;;1.10;0.77;;;19.20;99.90;;;;;;5074458;28;20195;-84
2021/06/27 02:04:19;;;;;;;0.83;0.73;;;19.30;99.90;;;;;;5072471;28;20205;-84
2021/06/27 02:06:44;;;;;;;0.60;0.60;;;19.30;99.90;;;;;;5055600;28;20680;-84
2021/06/27 02:09:12;;;;;;;0.70;0.70;;;19.30;99.90;;;;;;5055738;28;20192;-82
2021/06/27 02:11:39;;;;;;;0.90;0.90;;;19.40;99.90;;;;;;5073617;28;20196;-82
2021/06/27 02:14:05;;;;;;;0.60;0.60;;;19.40;99.90;;;;;;5055805;28;20212;-84
2021/06/27 02:16:32;;;;;;;1.43;1.20;;;19.50;99.90;;;;;;5073375;28;20665;-84
2021/06/27 02:18:57;;;;;;;1.73;0.90;;;19.60;99.90;;;;;;5073110;28;20183;-84
2021/06/27 02:21:35;;;;;;;2.57;1.00;;;19.60;99.90;;;;;;5055726;28;20253;-84
2021/06/27 02:24:03;;;;;;;0.90;0.77;;;19.60;99.90;;;;;;5054476;28;20216;-84
2021/06/27 02:26:29;;;;;;;2.87;0.90;;;19.50;99.90;;;;;;5055332;28;20181;-84
2021/06/27 02:28:58;;;;;;;0.80;0.80;;;19.50;99.90;;;;;;5054876;28;20185;-83
2021/06/27 02:31:27;;;;;;;1.27;1.27;;;19.50;99.90;;;;;;5073071;28;20288;-84
2021/06/27 02:33:52;;;;;;;2.27;1.50;;;19.50;99.90;;;;;;5089394;28;20205;-83
2021/06/27 02:36:18;;;;;;;1.20;0.90;;;19.50;99.90;;;;;;5075420;28;20538;-84
2021/06/27 02:38:44;;;;;;;1.43;1.03;;;19.50;99.90;;;;;;5074965;28;20688;-84
2021/06/27 02:41:10;;;;;;;1.97;0.80;;;19.60;99.90;;;;;;5074223;28;20265;-84
2021/06/27 02:43:37;;;;;;;1.70;1.07;;;19.60;99.90;;;;;;5092697;28;20302;-85
2021/06/27 02:46:02;;;;;;;3.53;0.87;;;19.60;99.90;;;;;;5072896;28;20185;-84
2021/06/27 02:48:29;;;;;;;0.77;0.57;;;19.50;99.90;;;;;;5072743;28;20190;-84
2021/06/27 02:50:55;;;;;;;1.03;0.93;;;19.50;99.90;;;;;;5054968;28;20185;-84
2021/06/27 02:53:21;;;;;;;0.80;0.80;;;19.40;99.90;;;;;;5072610;28;20287;-83
2021/06/27 02:55:47;;;;;;;1.83;0.70;;;19.40;99.90;;;;;;5053760;28;20680;-82
2021/06/27 02:58:13;;;;;;;1.07;0.90;;;19.40;99.90;;;;;;5074681;28;20279;-84
2021/06/27 03:00:38;;;;;;;0.57;0.57;;;19.40;99.90;;;;;;5092705;28;20204;-84
2021/06/27 03:03:05;;;;;;;0.93;0.90;;;19.40;99.90;;;;;;5092880;28;20212;-84
2021/06/27 03:05:30;;;;;;;2.03;0.90;;;19.40;99.90;;;;;;5092851;28;20713;-84
2021/06/27 03:07:56;;;;;;;0.60;0.60;;;19.30;99.90;;;;;;5072938;28;20184;-84
2021/06/27 03:10:22;;;;;;;0.80;0.80;;;19.30;99.90;;;;;;5074713;28;20238;-84
2021/06/27 03:12:50;;;;;;;0.53;0.53;;;19.20;99.90;;;;;;5092334;28;20208;-84
2021/06/27 03:15:18;;;;;;;0.73;0.70;;;19.20;99.90;;;;;;5092528;28;20177;-83
2021/06/27 03:17:44;;;;;;;0.60;0.60;;;19.30;99.90;;;;;;5074121;28;20268;-84
2021/06/27 03:20:12;;;;;;;1.50;1.00;;;19.20;99.90;;;;;;5074534;28;20180;-84
2021/06/27 03:22:39;;;;;;;0.40;0.40;;;19.20;99.90;;;;;;5074468;28;20184;-84
2021/06/27 03:25:07;;;;;;;1.27;0.80;;;19.30;99.90;;;;;;5092554;28;20852;-84
2021/06/27 03:27:33;;;;;;;0.77;0.57;;;19.40;99.90;;;;;;5073403;28;20178;-84
2021/06/27 03:29:58;;;;;;;0.20;0.20;;;19.60;99.90;;;;;;5072300;28;20183;-84
2021/06/27 03:32:24;;;;;;;0.53;0.50;;;19.70;99.90;;;;;;5058206;28;20263;-84
2021/06/27 03:34:50;;;;;;;0.50;0.50;;;19.70;99.90;;;;;;5074535;28;20698;-83
2021/06/27 03:37:15;;;;;;;0.73;0.73;;;19.70;99.90;;;;;;5074014;28;20188;-84
2021/06/27 03:39:41;;;;;;;0.37;0.37;;;19.70;99.90;;;;;;5074150;28;20194;-84
2021/06/27 03:42:07;;;;;;;0.50;0.50;;;19.70;99.90;;;;;;5074327;28;20184;-84
2021/06/27 03:44:33;;;;;;;0.77;0.70;;;19.90;99.90;;;;;;5066033;28;20208;-84
2021/06/27 03:46:59;;;;;;;0.50;0.50;;;20.00;99.90;;;;;;5053818;28;20707;-84
2021/06/27 03:49:24;;;;;;;0.63;0.63;;;20.10;99.90;;;;;;5072096;28;20211;-84
2021/06/27 03:51:51;;;;;;;0.47;0.47;;;20.20;99.90;;;;;;5055641;28;20268;-84
2021/06/27 03:54:17;;;;;;;0.47;0.47;;;20.40;99.90;;;;;;5050556;28;20638;-84
2021/06/27 03:56:43;;;;;;;0.33;0.33;;;20.50;99.90;;;;;;5090558;28;20196;-83
2021/06/27 03:59:08;;;;;;;0.87;0.87;;;20.60;99.90;;;;;;5077954;28;20188;-83
2021/06/27 04:01:34;;;;;;;0.60;0.60;;;20.40;99.90;;;;;;5078228;28;20706;-84
2021/06/27 04:04:00;;;;;;;1.10;0.97;;;20.50;99.90;;;;;;5078370;28;20211;-84
2021/06/27 04:06:26;;;;;;;0.40;0.40;;;20.60;99.90;;;;;;5096476;28;20631;-84
2021/06/27 04:08:52;;;;;;;0.30;0.30;;;20.70;99.90;;;;;;5076739;28;20267;-84
2021/06/27 04:11:18;;;;;;;0.50;0.50;;;21.10;99.90;;;;;;5078785;28;20262;-84
2021/06/27 04:13:43;;;;;;;0.63;0.63;;;21.20;99.90;;;;;;5078862;28;20219;-84
2021/06/27 04:16:09;;;;;;;1.23;0.97;;;20.90;99.90;;;;;;5078802;28;20188;-84
2021/06/27 04:18:36;;;;;;;2.57;1.50;;;20.40;99.90;;;;;;5078203;28;20188;-84
2021/06/27 04:21:03;;;;;;;1.60;0.90;;;20.10;99.90;;;;;;5078643;28;20196;-84
2021/06/27 04:23:30;;;;;;;0.83;0.80;;;19.90;99.90;;;;;;5078719;28;20768;-84
2021/06/27 04:25:55;;;;;;;1.80;1.03;;;19.70;99.90;;;;;;5073272;28;20223;-84
2021/06/27 04:28:21;;;;;;;1.07;0.93;;;19.90;99.90;;;;;;5074141;28;20185;-82
2021/06/27 04:30:48;;;;;;;0.53;0.53;;;19.90;99.90;;;;;;5057670;28;20208;-84
2021/06/27 04:33:14;;;;;;;1.83;1.47;;;20.00;99.90;;;;;;5064086;28;20255;-84
2021/06/27 04:35:40;;;;;;;1.00;0.80;;;19.90;99.90;;;;;;5075309;28;20188;-84
2021/06/27 04:38:09;;;;;;;1.00;0.80;;;19.70;99.90;;;;;;5095088;28;20180;-84
2021/06/27 04:40:35;;;;;;;1.43;1.27;;;19.70;99.90;;;;;;5077541;28;20256;-84
2021/06/27 04:43:01;;;;;;;0.87;0.70;;;19.80;99.90;;;;;;5095253;28;20222;-84
2021/06/27 04:45:27;;;;;;;1.10;1.10;;;19.80;99.90;;;;;;5072050;28;20272;-84
2021/06/27 04:47:53;;;;;;;3.10;1.40;;;19.80;99.90;;;;;;5056834;28;20688;-84
2021/06/27 04:50:18;;;;;;;1.27;1.10;;;19.80;99.90;;;;;;5057179;28;20181;-84
2021/06/27 04:52:44;;;;;;;0.97;0.90;;;20.10;99.90;;;;;;5073550;28;20697;-84
2021/06/27 04:55:10;;;;;;;0.57;0.57;;;20.40;99.90;;;;;;5063443;28;20562;-83
2021/06/27 04:57:36;;;;;;;0.90;0.90;;;20.50;99.90;;;;;;5078020;28;20189;-83
2021/06/27 05:00:05;;;;;;;1.03;0.77;;;20.90;99.90;;;;;;5081876;28;20227;-82
2021/06/27 05:02:31;;;;;;;0.60;0.60;;;21.10;99.90;;;;;;5063388;28;20195;-84
2021/06/27 05:04:57;;;;;;;0.80;0.70;;;21.00;99.90;;;;;;5065117;28;20595;-84
2021/06/27 05:07:22;;;;;;;1.60;0.70;;;20.80;99.90;;;;;;5077679;28;20184;-84
2021/06/27 05:09:49;;;;;;;0.60;0.60;;;20.90;99.90;;;;;;5056571;28;20661;-83
2021/06/27 05:12:15;;;;;;;0.63;0.63;;;20.80;99.90;;;;;;5056645;28;20184;-84
2021/06/27 05:14:41;;;;;;;0.80;0.80;;;20.70;99.90;;;;;;5056548;28;20240;-84
2021/06/27 05:17:07;;;;;;;0.63;0.50;;;20.80;99.90;;;;;;5074080;28;20254;-84
2021/06/27 05:19:33;;;;;;;0.60;0.60;;;20.90;99.90;;;;;;5074351;28;20187;-84
2021/06/27 05:21:58;;;;;;;0.87;0.87;;;21.20;99.90;;;;;;5073074;28;20185;-84
2021/06/27 05:24:24;;;;;;;0.60;0.50;;;21.40;99.90;;;;;;5074139;28;20244;-85
2021/06/27 05:26:50;;;;;;;2.07;0.60;;;21.20;99.90;;;;;;5055954;28;20243;-84
2021/06/27 05:29:15;;;;;;;0.50;0.50;;;21.10;99.90;;;;;;5056124;28;20180;-82
2021/06/27 05:31:41;;;;;;;1.40;0.97;;;20.90;99.90;;;;;;5056400;28;20191;-84
2021/06/27 05:34:07;;;;;;;1.13;0.83;;;20.90;99.90;;;;;;5073973;28;20295;-84
2021/06/27 05:36:39;;;;;;;1.53;1.10;;;21.00;99.90;;;;;;5076186;28;20184;-83
2021/06/27 05:39:06;;;;;;;0.90;0.90;;;20.90;99.90;;;;;;5094202;28;20233;-83
2021/06/27 05:41:32;;;;;;;0.90;0.70;;;20.80;99.90;;;;;;5094357;28;20550;-84
2021/06/27 05:43:58;;;;;;;0.93;0.93;;;20.80;99.90;;;;;;5072276;28;20221;-84
2021/06/27 05:46:23;;;;;;;1.03;1.03;;;20.90;99.90;;;;;;5073911;28;20185;-84
2021/06/27 05:48:49;;;;;;;1.07;1.07;;;21.10;99.90;;;;;;5072326;28;20192;-84
2021/06/27 05:51:15;;;;;;;0.70;0.70;;;21.10;99.90;;;;;;5056070;28;20267;-83
2021/06/27 05:53:41;;;;;;;0.57;0.57;;;21.20;99.90;;;;;;5053074;28;20269;-84
2021/06/27 05:56:09;;;;;;;0.90;0.90;;;21.50;99.90;;;;;;5064521;28;20297;-84
2021/06/27 05:58:37;;;;;;;1.33;1.20;;;21.50;99.90;;;;;;5072127;28;20195;-84
2021/06/27 06:01:04;;;;;;;0.80;0.80;;;21.80;99.90;;;;;;5072643;28;20725;-83
2021/06/27 06:03:30;;;;;;;2.50;1.53;;;21.90;99.90;;;;;;5055443;28;20219;-84
2021/06/27 06:05:56;;;;;;;0.40;0.40;;;22.00;99.90;;;;;;5072544;28;20618;-84
2021/06/27 06:08:21;;;;;;;0.63;0.47;;;21.80;99.90;;;;;;5055034;28;20713;-84
2021/06/27 06:10:47;;;;;;;0.97;0.87;;;22.10;99.90;;;;;;5055585;28;20189;-84
2021/06/27 06:13:12;;;;;;;1.10;1.00;;;22.30;99.90;;;;;;5055449;28;20209;-84
2021/06/27 06:15:38;;;;;;;1.97;0.57;;;22.40;99.90;;;;;;5073366;28;20181;-84
2021/06/27 06:18:04;;;;;;;1.17;0.67;;;22.50;99.90;;;;;;5073116;28;20181;-84
2021/06/27 06:20:29;;;;;;;1.77;0.90;;;22.40;99.90;;;;;;5071947;28;20220;-84
2021/06/27 06:22:55;;;;;;;1.07;1.00;;;22.20;99.90;;;;;;5071955;28;20209;-84
2021/06/27 06:25:21;;;;;;;4.10;0.90;;;22.30;99.90;;;;;;5054985;28;20215;-84
2021/06/27 06:27:46;;;;;;;1.03;1.03;;;22.00;99.90;;;;;;5054787;28;20661;-84
2021/06/27 06:30:13;;;;;;;0.70;0.70;;;21.80;99.90;;;;;;5055175;28;20234;-84
2021/06/27 06:32:38;;;;;;;0.87;0.87;;;21.70;99.90;;;;;;5060756;28;20192;-84
2021/06/27 06:35:05;;;;;;;0.93;0.93;;;22.10;99.90;;;;;;5093129;28;20180;-84
2021/06/27 06:37:30;;;;;;;0.93;0.90;;;22.00;99.90;;;;;;5074654;28;20195;-84
2021/06/27 06:39:56;;;;;;;1.10;1.10;;;22.20;99.90;;;;;;5092744;28;20185;-84
2021/06/27 06:42:22;;;;;;;1.60;0.77;;;22.40;99.90;;;;;;5074847;28;20188;-84
2021/06/27 06:44:47;;;;;;;0.70;0.70;;;22.20;99.90;;;;;;5071147;28;20242;-84
2021/06/27 06:47:13;;;;;;;3.40;1.90;;;22.50;99.90;;;;;;5055706;28;20272;-84
2021/06/27 06:49:38;;;;;;;1.33;1.23;;;22.40;99.90;;;;;;5071279;28;20182;-84
2021/06/27 06:52:04;;;;;;;2.33;1.50;;;22.80;99.90;;;;;;5054758;28;20545;-83
2021/06/27 06:54:30;;;;;;;1.20;1.20;;;22.80;99.90;;;;;;5062676;28;20745;-83
2021/06/27 06:56:56;;;;;;;1.43;1.33;;;22.90;99.90;;;;;;5069706;28;20246;-84
2021/06/27 06:59:21;;;;;;;2.87;1.13;;;22.70;99.90;;;;;;5071208;28;20208;-84
2021/06/27 07:01:47;;;;;;;1.07;0.97;;;22.80;99.90;;;;;;5054621;28;20195;-84
2021/06/27 07:04:13;;;;;;;1.13;0.87;;;22.60;99.90;;;;;;5054192;28;20215;-84
2021/06/27 07:06:38;;;;;;;0.67;0.67;;;23.10;99.90;;;;;;5054222;28;20192;-84
2021/06/27 07:09:04;;;;;;;1.30;0.90;;;23.30;99.90;;;;;;5071171;28;20183;-84
2021/06/27 07:11:30;;;;;;;1.60;1.50;;;23.20;99.90;;;;;;5072028;28;20188;-84
2021/06/27 07:13:55;;;;;;;1.20;1.10;;;23.20;99.90;;;;;;5054266;28;20255;-84
2021/06/27 07:16:21;;;;;;;0.90;0.90;;;23.10;99.90;;;;;;5054757;28;20193;-84
2021/06/27 07:18:47;;;;;;;1.53;1.00;;;23.30;99.90;;;;;;5055010;28;20188;-82
2021/06/27 07:21:15;;;;;;;3.73;1.00;;;23.60;99.90;;;;;;5054005;28;20193;-84
2021/06/27 07:23:40;;;;;;;2.43;0.93;;;23.00;99.90;;;;;;5054914;28;20767;-84
2021/06/27 07:26:06;;;;;;;1.07;0.70;;;23.20;99.90;;;;;;5071670;28;20269;-84
2021/06/27 07:28:32;;;;;;;0.70;0.70;;;23.50;99.90;;;;;;5054170;28;20210;-84
2021/06/27 07:30:59;;;;;;;1.43;0.90;;;23.70;99.90;;;;;;5071983;28;20687;-84
2021/06/27 07:33:25;;;;;;;0.70;0.70;;;23.30;99.90;;;;;;5054048;28;20562;-84
2021/06/27 07:35:50;;;;;;;1.03;0.77;;;23.70;99.90;;;;;;5053864;28;20196;-85
2021/06/27 07:38:16;;;;;;;1.07;0.83;;;24.10;99.90;;;;;;5071718;28;20547;-84
2021/06/27 07:40:42;;;;;;;0.60;0.60;;;23.90;99.90;;;;;;5070576;28;20199;-84
2021/06/27 07:43:08;;;;;;;1.67;1.00;;;24.00;99.90;;;;;;5070568;28;20231;-84
2021/06/27 07:45:34;;;;;;;1.20;0.87;;;24.00;99.90;;;;;;5053314;28;20211;-83
2021/06/27 07:48:00;;;;;;;0.67;0.60;;;24.30;99.90;;;;;;5071488;28;20227;-84
2021/06/27 07:50:26;;;;;;;4.10;1.87;;;24.40;99.90;;;;;;5072180;28;20258;-84
2021/06/27 07:52:51;;;;;;;0.97;0.97;;;24.70;99.90;;;;;;5071887;28;20213;-84
2021/06/27 07:55:17;;;;;;;0.87;0.83;;;24.60;99.90;;;;;;5049139;28;20215;-85
2021/06/27 07:57:42;;;;;;;0.90;0.90;;;24.60;99.90;;;;;;5073722;28;20188;-84
2021/06/27 08:00:10;;;;;;;0.90;0.70;;;25.10;99.90;;;;;;5073831;28;20678;-84
2021/06/27 08:02:37;;;;;;;1.27;0.73;;;25.50;99.90;;;;;;5073717;28;20227;-85
2021/06/27 08:05:04;;;;;;;0.70;0.70;;;24.80;99.90;;;;;;5073650;28;20212;-84
2021/06/27 08:07:29;;;;;;;1.20;1.20;;;24.20;99.90;;;;;;5072690;28;20200;-84
2021/06/27 08:09:55;;;;;;;1.07;0.77;;;24.40;99.90;;;;;;5073011;28;20195;-84
2021/06/27 08:12:21;;;;;;;3.00;0.70;;;24.90;99.90;;;;;;5073633;28;20692;-84
2021/06/27 08:14:47;;;;;;;1.67;0.97;;;25.20;99.90;;;;;;5073630;28;20193;-84
2021/06/27 08:17:12;;;;;;;0.87;0.87;;;25.50;99.90;;;;;;5073376;28;20193;-84
2021/06/27 08:19:38;;;;;;;1.70;1.17;;;25.20;99.90;;;;;;5073886;28;20192;-84
2021/06/27 08:22:04;;;;;;;1.57;0.87;;;24.80;99.90;;;;;;5073953;28;20189;-84
2021/06/27 08:24:30;;;;;;;2.23;0.83;;;25.00;99.90;;;;;;5073827;28;20242;-85
2021/06/27 08:26:56;;;;;;;0.90;0.90;;;25.20;99.90;;;;;;5059856;28;20177;-84
2021/06/27 08:29:22;;;;;;;1.17;1.00;;;24.60;99.90;;;;;;5053427;28;20216;-84
2021/06/27 08:31:47;;;;;;;0.77;0.70;;;24.20;99.90;;;;;;5053493;28;20238;-85
2021/06/27 08:34:13;;;;;;;1.30;1.20;;;24.50;99.90;;;;;;5070370;28;20216;-84
2021/06/27 08:36:39;;;;;;;1.33;0.80;;;24.80;99.90;;;;;;5053226;28;20273;-84
2021/06/27 08:39:05;;;;;;;1.00;1.00;;;24.90;99.90;;;;;;5075146;28;20185;-84
2021/06/27 08:41:31;;;;;;;1.67;1.03;;;24.80;99.90;;;;;;5057170;28;20199;-84
2021/06/27 08:43:57;;;;;;;1.00;0.80;;;25.00;99.90;;;;;;5053969;28;20254;-84
2021/06/27 08:46:24;;;;;;;1.10;1.00;;;25.20;99.90;;;;;;5065365;28;20250;-84
2021/06/27 08:48:52;;;;;;;2.57;1.30;;;25.30;99.90;;;;;;5073464;28;20211;-84
2021/06/27 08:51:18;;;;;;;1.03;0.93;;;25.20;99.90;;;;;;5057305;28;20268;-84
2021/06/27 08:53:44;;;;;;;1.40;1.30;;;25.10;99.90;;;;;;5053618;28;20305;-84
2021/06/27 08:56:11;;;;;;;1.60;1.37;;;25.20;99.90;;;;;;5079403;28;20298;-84
2021/06/27 08:58:38;;;;;;;1.67;1.43;;;25.60;99.90;;;;;;5076667;28;20198;-84
2021/06/27 09:01:06;;;;;;;1.33;1.23;;;25.30;99.90;;;;;;5095199;28;20241;-85
2021/06/27 09:03:32;;;;;;;2.57;1.23;;;25.80;99.90;;;;;;5076831;28;20247;-85
2021/06/27 09:05:58;;;;;;;1.27;1.17;;;25.90;99.90;;;;;;5077076;28;20180;-84
2021/06/27 09:08:25;;;;;;;0.97;0.87;;;25.60;99.90;;;;;;5068419;28;20243;-84
2021/06/27 09:10:50;;;;;;;1.20;1.10;;;25.60;99.90;;;;;;5057107;28;20668;-84
2021/06/27 09:13:16;;;;;;;1.70;1.30;;;25.80;99.90;;;;;;5056661;28;20205;-85
2021/06/27 09:15:45;;;;;;;1.63;1.07;;;25.60;99.90;;;;;;5074561;28;20177;-84
2021/06/27 09:18:24;;;;;;;1.17;1.03;;;25.40;99.90;;;;;;5074150;28;20200;-85
2021/06/27 09:20:55;;;;;;;1.47;1.23;;;25.40;99.90;;;;;;5074420;28;20180;-84
2021/06/27 09:23:42;;;;;;;0.80;0.80;;;25.40;99.90;;;;;;5056573;28;20259;-84
2021/06/27 09:26:09;;;;;;;1.30;1.20;;;25.40;99.90;;;;;;5056731;28;20173;-84
2021/06/27 09:28:49;;;;;;;0.97;0.87;;;25.70;99.90;;;;;;5056174;28;20195;-85
2021/06/27 09:31:34;;;;;;;0.93;0.87;;;25.90;99.90;;;;;;5074473;28;20267;-84
2021/06/27 09:34:02;;;;;;;1.23;1.10;;;26.80;99.90;;;;;;5060549;28;20298;-84
2021/06/27 09:36:27;;;;;;;1.30;1.20;;;26.90;99.90;;;;;;5076469;28;20668;-84
2021/06/27 09:38:54;;;;;;;1.30;0.77;;;26.00;99.90;;;;;;5093966;28;20196;-85
2021/06/27 09:41:22;;;;;;;1.30;0.90;;;26.30;99.90;;;;;;5094487;28;20181;-84
2021/06/27 09:43:55;;;;;;;1.27;1.03;;;26.50;99.90;;;;;;5074016;28;20688;-85
2021/06/27 09:46:57;;;;;;;1.00;0.93;;;27.10;99.90;;;;;;5063441;28;20189;-84
2021/06/27 09:49:26;;;;;;;1.53;1.13;;;27.50;99.90;;;;;;5070324;28;20204;-84
2021/06/27 09:51:55;;;;;;;1.13;1.03;;;28.00;99.90;;;;;;5073809;28;20657;-84
2021/06/27 09:54:26;;;;;;;1.43;1.10;;;27.30;99.90;;;;;;5047677;28;20221;-85
2021/06/27 09:56:52;;;;;;;2.27;1.60;;;27.80;99.90;;;;;;5055250;28;20219;-84
2021/06/27 09:59:20;;;;;;;1.30;1.20;;;27.30;99.90;;;;;;5073607;28;20187;-84
2021/06/27 10:01:46;;;;;;;1.57;1.17;;;27.50;99.90;;;;;;5056052;28;20189;-85
2021/06/27 10:04:25;;;;;;;1.33;1.13;;;27.20;99.90;;;;;;5073430;28;20208;-85
2021/06/27 10:06:53;;;;;;;1.03;1.03;;;26.60;99.90;;;;;;5055769;28;20184;-84
2021/06/27 10:09:21;;;;;;;1.73;1.20;;;26.90;99.90;;;;;;5055592;28;20554;-84
2021/06/27 10:12:18;;;;;;;1.47;1.37;;;26.00;99.90;;;;;;5055753;28;20572;-84
2021/06/27 10:14:51;;;;;;;1.80;1.67;;;26.40;99.90;;;;;;5043809;28;20226;-84
2021/06/27 10:17:18;;;;;;;1.17;1.13;;;26.80;99.90;;;;;;5055775;28;20197;-85
2021/06/27 10:19:44;;;;;;;1.40;1.17;;;26.60;99.90;;;;;;5055312;28;20215;-85
2021/06/27 10:22:10;;;;;;;2.80;1.00;;;26.40;99.90;;;;;;5073599;28;20192;-85
2021/06/27 10:24:37;;;;;;;1.30;0.93;;;26.50;99.90;;;;;;5072015;28;20216;-85
2021/06/27 10:27:05;;;;;;;0.73;0.73;;;26.60;99.90;;;;;;5072924;28;20181;-83
2021/06/27 10:29:32;;;;;;;1.30;1.23;;;26.70;99.90;;;;;;5054981;28;20184;-85
2021/06/27 10:31:58;;;;;;;1.50;1.27;;;27.10;99.90;;;;;;5055407;28;20656;-85
2021/06/27 10:34:25;;;;;;;1.20;1.00;;;27.90;99.90;;;;;;5055321;28;20213;-84
2021/06/27 10:36:54;;;;;;;0.73;0.70;;;27.50;99.90;;;;;;5055177;28;20188;-84
2021/06/27 10:39:21;;;;;;;0.57;0.57;;;27.80;99.90;;;;;;5055030;28;20200;-85
2021/06/27 10:42:01;;;;;;;1.23;0.90;;;27.90;99.90;;;;;;5072870;28;20242;-85
2021/06/27 10:44:50;;;;;;;1.23;1.03;;;28.40;99.90;;;;;;5047739;28;20224;-85
2021/06/27 10:47:33;;;;;;;1.43;1.40;;;28.50;99.90;;;;;;5071759;28;20217;-84
2021/06/27 10:50:00;;;;;;;1.57;1.10;;;28.90;99.90;;;;;;5054624;28;20554;-84
2021/06/27 10:52:26;;;;;;;1.37;1.27;;;28.60;99.90;;;;;;5054851;28;20201;-85
2021/06/27 10:55:13;;;;;;;1.30;1.20;;;28.50;99.90;;;;;;5063439;28;20264;-85
2021/06/27 10:58:11;;;;;;;1.53;1.43;;;28.30;99.90;;;;;;5092502;28;20184;-85
2021/06/27 11:00:56;;;;;;;1.13;1.03;;;28.40;99.90;;;;;;5091887;28;20192;-84
2021/06/27 11:03:34;;;;;;;1.77;1.30;;;28.30;99.90;;;;;;5092887;28;20226;-85
2021/06/27 11:06:06;;;;;;;1.10;0.90;;;28.20;99.90;;;;;;5074617;28;20176;-84
2021/06/27 11:08:43;;;;;;;1.07;1.03;;;28.70;99.90;;;;;;5072315;28;20188;-85
2021/06/27 11:11:13;;;;;;;0.83;0.73;;;28.20;99.90;;;;;;5092759;28;20218;-84
2021/06/27 11:13:39;;;;;;;2.22;1.15;;;28.80;99.90;;;;;;5092871;28;20204;-85
2021/06/27 11:16:13;;;;;;;0.93;0.93;;;28.00;99.90;;;;;;5074642;28;20202;-85
2021/06/27 11:18:48;;;;;;;0.85;0.85;;;28.20;99.90;;;;;;5105283;28;20208;-84
2021/06/27 11:21:20;;;;;;;1.00;1.00;;;28.70;99.90;;;;;;5097217;28;20199;-84
2021/06/27 11:23:58;;;;;;;0.73;0.50;;;28.70;99.90;;;;;;5097455;28;20208;-84
2021/06/27 11:26:41;;;;;;;1.27;0.93;;;28.50;99.90;;;;;;5104994;28;20177;-83
2021/06/27 11:29:23;;;;;;;0.70;0.70;;;28.40;99.90;;;;;;5072561;28;20189;-84
2021/06/27 11:31:49;;;;;;;0.80;0.73;;;28.20;99.90;;;;;;5071174;28;20185;-84
2021/06/27 11:34:22;;;;;;;2.10;0.70;;;28.30;99.90;;;;;;5064682;28;20698;-84
2021/06/27 11:36:49;;;;;;;2.38;0.82;;;27.80;99.90;;;;;;5091968;28;20233;-84
2021/06/27 11:39:43;;;;;;;0.77;0.73;;;27.70;99.90;;;;;;5074530;28;20656;-85
2021/06/27 11:42:26;;;;;;;0.80;0.80;;;28.30;99.90;;;;;;5073878;28;20191;-85
2021/06/27 11:45:24;;;;;;;0.80;0.73;;;28.60;99.90;;;;;;5081694;28;20204;-84
2021/06/27 11:47:49;;;;;;;1.03;0.70;;;28.80;99.90;;;;;;5051497;28;20193;-85
2021/06/27 11:50:21;;;;;;;0.70;0.70;;;28.70;99.90;;;;;;5070723;28;20718;-84
2021/06/27 11:52:55;;;;;;;0.65;0.65;;;28.70;99.90;;;;;;5053929;28;20714;-85
2021/06/27 11:55:29;;;;;;;0.82;0.60;;;28.50;99.90;;;;;;5066613;28;20662;-84
2021/06/27 11:57:56;;;;;;;1.73;1.37;;;28.70;99.90;;;;;;5073669;28;20656;-84
2021/06/27 12:00:38;;;;;;;0.75;0.75;;;29.00;99.90;;;;;;5073660;28;20597;-84
2021/06/27 12:03:08;;;;;;;0.70;0.70;;;28.80;99.90;;;;;;5074416;28;20235;-84
2021/06/27 12:05:35;;;;;;;0.73;0.73;;;29.00;99.90;;;;;;5092319;28;20185;-85
2021/06/27 12:08:09;;;;;;;1.08;0.98;;;29.00;99.90;;;;;;5071200;28;20188;-85
2021/06/27 12:10:36;;;;;;;3.13;1.45;;;29.10;99.90;;;;;;5073730;28;20184;-83
2021/06/27 12:13:06;;;;;;;0.90;0.82;;;28.70;99.90;;;;;;5094356;28;20672;-84
2021/06/27 12:15:34;;;;;;;1.05;0.57;;;28.70;99.90;;;;;;5077972;28;20237;-84
2021/06/27 12:18:02;;;;;;;1.02;0.93;;;29.10;99.90;;;;;;5095503;28;20195;-83
2021/06/27 12:20:31;;;;;;;1.40;1.10;;;29.20;99.90;;;;;;5095945;28;20184;-85
2021/06/27 12:23:03;;;;;;;0.85;0.85;;;29.50;99.90;;;;;;5095587;28;20660;-84
2021/06/27 12:25:32;;;;;;;0.77;0.77;;;29.10;99.90;;;;;;5076101;28;20257;-85
2021/06/27 12:28:02;;;;;;;0.70;0.68;;;29.50;99.90;;;;;;5057190;28;20260;-85
2021/06/27 12:30:52;;;;;;;0.63;0.50;;;30.10;99.90;;;;;;5075448;28;20180;-85
2021/06/27 12:33:21;;;;;;;1.15;1.05;;;30.00;99.90;;;;;;5054132;28;20587;-83
2021/06/27 12:35:50;;;;;;;0.60;0.60;;;29.60;99.90;;;;;;5073838;28;20234;-84
2021/06/27 12:38:16;;;;;;;0.80;0.77;;;29.90;99.90;;;;;;5056940;28;20185;-85
2021/06/27 12:40:49;;;;;;;0.43;0.43;;;29.80;99.90;;;;;;5057308;28;20193;-85
2021/06/27 12:43:20;;;;;;;0.60;0.60;;;29.80;99.90;;;;;;5075060;28;20275;-84
2021/06/27 12:45:46;;;;;;;0.93;0.85;;;30.00;99.90;;;;;;5073325;28;20618;-83
2021/06/27 12:48:12;;;;;;;0.82;0.70;;;29.40;99.90;;;;;;5076817;28;20287;-85
2021/06/27 12:50:39;;;;;;;2.38;0.70;;;29.90;99.90;;;;;;5077045;28;20238;-85
2021/06/27 12:53:06;;;;;;;0.82;0.82;;;29.80;99.90;;;;;;5076844;28;20266;-84